sensor_id;sensor_type;location;lat;lon;timestamp;P1;durP1;ratioP1;P2;durP2;ratioP2
18610;SDS011;9435;52.122;5.502;2022-11-25T00:01:06;20.42;;;4.00;;
18610;SDS011;9435;52.122;5.502;2022-11-25T00:03:36;17.25;;;3.22;;
18610;SDS011;9435;52.122;5.502;2022-11-25T00:06:07;20.98;;;3.65;;
18610;SDS011;9435;52.122;5.502;2022-11-25T00:08:35;15.50;;;3.47;;
18610;SDS011;9435;52.122;5.502;2022-11-25T00:11:03;22.92;;;3.80;;
18610;SDS011;9435;52.122;5.502;2022-11-25T00:13:31;22.50;;;3.65;;
18610;SDS011;9435;52.122;5.502;2022-11-25T00:16:01;23.55;;;3.88;;
18610;SDS011;9435;52.122;5.502;2022-11-25T00:18:29;16.85;;;3.80;;
18610;SDS011;9435;52.122;5.502;2022-11-25T00:20:56;21.85;;;3.88;;
18610;SDS011;9435;52.122;5.502;2022-11-25T00:23:24;17.30;;;3.72;;
18610;SDS011;9435;52.122;5.502;2022-11-25T00:25:51;26.08;;;4.18;;
18610;SDS011;9435;52.122;5.502;2022-11-25T00:28:18;22.20;;;4.20;;
18610;SDS011;9435;52.122;5.502;2022-11-25T00:30:45;22.80;;;3.90;;
18610;SDS011;9435;52.122;5.502;2022-11-25T00:33:13;24.30;;;4.13;;
18610;SDS011;9435;52.122;5.502;2022-11-25T00:35:42;20.38;;;4.15;;
18610;SDS011;9435;52.122;5.502;2022-11-25T00:38:09;19.25;;;3.53;;
18610;SDS011;9435;52.122;5.502;2022-11-25T00:40:36;17.52;;;4.30;;
18610;SDS011;9435;52.122;5.502;2022-11-25T00:43:03;21.38;;;3.63;;
18610;SDS011;9435;52.122;5.502;2022-11-25T00:45:48;20.55;;;3.92;;
18610;SDS011;9435;52.122;5.502;2022-11-25T00:48:16;23.90;;;4.85;;
18610;SDS011;9435;52.122;5.502;2022-11-25T00:50:43;25.40;;;4.65;;
18610;SDS011;9435;52.122;5.502;2022-11-25T00:53:10;22.35;;;4.38;;
18610;SDS011;9435;52.122;5.502;2022-11-25T00:55:37;24.50;;;3.95;;
18610;SDS011;9435;52.122;5.502;2022-11-25T00:58:18;24.50;;;4.93;;
18610;SDS011;9435;52.122;5.502;2022-11-25T01:00:45;21.75;;;4.30;;
18610;SDS011;9435;52.122;5.502;2022-11-25T01:03:12;24.48;;;4.78;;
18610;SDS011;9435;52.122;5.502;2022-11-25T01:05:41;22.52;;;4.53;;
18610;SDS011;9435;52.122;5.502;2022-11-25T01:08:08;21.35;;;4.43;;
18610;SDS011;9435;52.122;5.502;2022-11-25T01:10:35;14.75;;;3.75;;
18610;SDS011;9435;52.122;5.502;2022-11-25T01:13:02;18.85;;;3.53;;
18610;SDS011;9435;52.122;5.502;2022-11-25T01:15:29;17.33;;;3.80;;
18610;SDS011;9435;52.122;5.502;2022-11-25T01:17:56;23.10;;;4.53;;
18610;SDS011;9435;52.122;5.502;2022-11-25T01:20:23;22.90;;;4.30;;
18610;SDS011;9435;52.122;5.502;2022-11-25T01:22:52;19.13;;;4.18;;
18610;SDS011;9435;52.122;5.502;2022-11-25T01:25:19;18.02;;;4.50;;
18610;SDS011;9435;52.122;5.502;2022-11-25T01:27:46;17.00;;;3.70;;
18610;SDS011;9435;52.122;5.502;2022-11-25T01:30:13;24.80;;;4.20;;
18610;SDS011;9435;52.122;5.502;2022-11-25T01:32:40;20.60;;;4.25;;
18610;SDS011;9435;52.122;5.502;2022-11-25T01:35:07;20.92;;;4.15;;
18610;SDS011;9435;52.122;5.502;2022-11-25T01:37:35;22.55;;;4.40;;
18610;SDS011;9435;52.122;5.502;2022-11-25T01:40:04;19.65;;;4.05;;
18610;SDS011;9435;52.122;5.502;2022-11-25T01:42:32;24.45;;;4.28;;
18610;SDS011;9435;52.122;5.502;2022-11-25T01:47:57;17.38;;;3.88;;
18610;SDS011;9435;52.122;5.502;2022-11-25T01:50:27;20.15;;;3.95;;
18610;SDS011;9435;52.122;5.502;2022-11-25T01:52:57;19.33;;;3.92;;
18610;SDS011;9435;52.122;5.502;2022-11-25T01:55:27;19.08;;;3.80;;
18610;SDS011;9435;52.122;5.502;2022-11-25T01:57:56;20.20;;;4.10;;
18610;SDS011;9435;52.122;5.502;2022-11-25T02:00:28;16.13;;;4.10;;
18610;SDS011;9435;52.122;5.502;2022-11-25T02:02:55;18.20;;;4.10;;
18610;SDS011;9435;52.122;5.502;2022-11-25T02:05:25;18.20;;;3.95;;
18610;SDS011;9435;52.122;5.502;2022-11-25T02:08:00;19.55;;;4.05;;
18610;SDS011;9435;52.122;5.502;2022-11-25T02:10:30;21.08;;;4.15;;
18610;SDS011;9435;52.122;5.502;2022-11-25T02:12:59;18.77;;;4.43;;
18610;SDS011;9435;52.122;5.502;2022-11-25T02:15:27;21.77;;;4.35;;
18610;SDS011;9435;52.122;5.502;2022-11-25T02:17:56;16.10;;;4.22;;
18610;SDS011;9435;52.122;5.502;2022-11-25T02:20:23;20.27;;;4.47;;
18610;SDS011;9435;52.122;5.502;2022-11-25T02:22:56;16.92;;;3.92;;
18610;SDS011;9435;52.122;5.502;2022-11-25T02:25:30;14.82;;;3.85;;
18610;SDS011;9435;52.122;5.502;2022-11-25T02:28:00;14.30;;;4.10;;
18610;SDS011;9435;52.122;5.502;2022-11-25T02:30:30;24.25;;;4.30;;
18610;SDS011;9435;52.122;5.502;2022-11-25T02:32:57;21.23;;;4.47;;
18610;SDS011;9435;52.122;5.502;2022-11-25T02:35:29;18.00;;;3.72;;
18610;SDS011;9435;52.122;5.502;2022-11-25T02:37:59;18.83;;;4.10;;
18610;SDS011;9435;52.122;5.502;2022-11-25T02:40:31;20.35;;;4.05;;
18610;SDS011;9435;52.122;5.502;2022-11-25T02:43:02;24.02;;;3.97;;
18610;SDS011;9435;52.122;5.502;2022-11-25T02:45:32;25.05;;;4.70;;
18610;SDS011;9435;52.122;5.502;2022-11-25T02:48:07;22.17;;;4.00;;
18610;SDS011;9435;52.122;5.502;2022-11-25T02:50:34;22.17;;;3.90;;
18610;SDS011;9435;52.122;5.502;2022-11-25T02:53:01;28.60;;;4.53;;
18610;SDS011;9435;52.122;5.502;2022-11-25T02:55:28;23.58;;;4.15;;
18610;SDS011;9435;52.122;5.502;2022-11-25T02:57:57;20.00;;;4.03;;
18610;SDS011;9435;52.122;5.502;2022-11-25T03:00:24;14.95;;;3.88;;
18610;SDS011;9435;52.122;5.502;2022-11-25T03:02:52;20.75;;;4.43;;
18610;SDS011;9435;52.122;5.502;2022-11-25T03:05:20;27.58;;;4.50;;
18610;SDS011;9435;52.122;5.502;2022-11-25T03:07:47;22.67;;;4.60;;
18610;SDS011;9435;52.122;5.502;2022-11-25T03:10:14;23.67;;;4.20;;
18610;SDS011;9435;52.122;5.502;2022-11-25T03:12:41;22.27;;;4.60;;
18610;SDS011;9435;52.122;5.502;2022-11-25T03:15:10;29.77;;;4.72;;
18610;SDS011;9435;52.122;5.502;2022-11-25T03:17:37;18.48;;;4.07;;
18610;SDS011;9435;52.122;5.502;2022-11-25T03:20:05;18.20;;;4.60;;
18610;SDS011;9435;52.122;5.502;2022-11-25T03:22:33;22.42;;;4.85;;
18610;SDS011;9435;52.122;5.502;2022-11-25T03:25:01;18.23;;;5.00;;
18610;SDS011;9435;52.122;5.502;2022-11-25T03:27:28;23.40;;;5.00;;
18610;SDS011;9435;52.122;5.502;2022-11-25T03:29:55;27.05;;;5.03;;
18610;SDS011;9435;52.122;5.502;2022-11-25T03:32:23;19.02;;;4.85;;
18610;SDS011;9435;52.122;5.502;2022-11-25T03:34:50;20.65;;;4.85;;
18610;SDS011;9435;52.122;5.502;2022-11-25T03:37:17;23.52;;;4.82;;
18610;SDS011;9435;52.122;5.502;2022-11-25T03:39:44;22.42;;;5.00;;
18610;SDS011;9435;52.122;5.502;2022-11-25T03:42:11;18.55;;;4.93;;
18610;SDS011;9435;52.122;5.502;2022-11-25T03:44:39;17.70;;;4.57;;
18610;SDS011;9435;52.122;5.502;2022-11-25T03:47:06;19.25;;;4.80;;
18610;SDS011;9435;52.122;5.502;2022-11-25T03:49:34;13.90;;;4.53;;
18610;SDS011;9435;52.122;5.502;2022-11-25T03:52:01;16.73;;;4.88;;
18610;SDS011;9435;52.122;5.502;2022-11-25T03:54:29;23.70;;;4.85;;
18610;SDS011;9435;52.122;5.502;2022-11-25T03:56:56;17.80;;;4.60;;
18610;SDS011;9435;52.122;5.502;2022-11-25T03:59:23;21.13;;;4.60;;
18610;SDS011;9435;52.122;5.502;2022-11-25T04:01:50;16.48;;;4.35;;
18610;SDS011;9435;52.122;5.502;2022-11-25T04:04:17;20.00;;;4.70;;
18610;SDS011;9435;52.122;5.502;2022-11-25T04:06:46;20.88;;;4.75;;
18610;SDS011;9435;52.122;5.502;2022-11-25T04:09:13;14.20;;;4.28;;
18610;SDS011;9435;52.122;5.502;2022-11-25T04:11:40;18.55;;;4.43;;
18610;SDS011;9435;52.122;5.502;2022-11-25T04:14:24;20.40;;;4.20;;
18610;SDS011;9435;52.122;5.502;2022-11-25T04:16:52;15.88;;;4.07;;
18610;SDS011;9435;52.122;5.502;2022-11-25T04:19:19;18.70;;;4.63;;
18610;SDS011;9435;52.122;5.502;2022-11-25T04:21:47;18.58;;;4.00;;
18610;SDS011;9435;52.122;5.502;2022-11-25T04:24:14;16.35;;;3.95;;
18610;SDS011;9435;52.122;5.502;2022-11-25T04:26:41;17.10;;;4.20;;
18610;SDS011;9435;52.122;5.502;2022-11-25T04:29:08;17.30;;;3.83;;
18610;SDS011;9435;52.122;5.502;2022-11-25T04:31:35;11.10;;;3.55;;
18610;SDS011;9435;52.122;5.502;2022-11-25T04:34:03;15.18;;;3.45;;
18610;SDS011;9435;52.122;5.502;2022-11-25T04:36:30;16.00;;;3.40;;
18610;SDS011;9435;52.122;5.502;2022-11-25T04:38:58;12.80;;;3.03;;
18610;SDS011;9435;52.122;5.502;2022-11-25T04:41:25;14.38;;;2.80;;
18610;SDS011;9435;52.122;5.502;2022-11-25T04:43:52;8.20;;;2.35;;
18610;SDS011;9435;52.122;5.502;2022-11-25T04:46:20;8.90;;;2.53;;
18610;SDS011;9435;52.122;5.502;2022-11-25T04:48:48;8.73;;;1.95;;
18610;SDS011;9435;52.122;5.502;2022-11-25T04:51:16;9.88;;;2.22;;
18610;SDS011;9435;52.122;5.502;2022-11-25T04:53:43;7.57;;;2.00;;
18610;SDS011;9435;52.122;5.502;2022-11-25T04:56:12;8.10;;;1.98;;
18610;SDS011;9435;52.122;5.502;2022-11-25T04:58:42;7.70;;;2.05;;
18610;SDS011;9435;52.122;5.502;2022-11-25T05:01:27;10.68;;;1.90;;
18610;SDS011;9435;52.122;5.502;2022-11-25T05:03:54;11.45;;;2.00;;
18610;SDS011;9435;52.122;5.502;2022-11-25T05:06:21;10.98;;;2.33;;
18610;SDS011;9435;52.122;5.502;2022-11-25T05:08:48;7.13;;;2.08;;
18610;SDS011;9435;52.122;5.502;2022-11-25T05:11:17;10.48;;;2.42;;
18610;SDS011;9435;52.122;5.502;2022-11-25T05:13:44;5.90;;;2.00;;
18610;SDS011;9435;52.122;5.502;2022-11-25T05:16:11;11.00;;;2.28;;
18610;SDS011;9435;52.122;5.502;2022-11-25T05:18:38;11.45;;;2.30;;
18610;SDS011;9435;52.122;5.502;2022-11-25T05:21:05;10.55;;;1.98;;
18610;SDS011;9435;52.122;5.502;2022-11-25T05:23:32;11.02;;;2.65;;
18610;SDS011;9435;52.122;5.502;2022-11-25T05:25:59;8.40;;;2.00;;
18610;SDS011;9435;52.122;5.502;2022-11-25T05:28:28;7.65;;;2.20;;
18610;SDS011;9435;52.122;5.502;2022-11-25T05:30:56;8.82;;;2.38;;
18610;SDS011;9435;52.122;5.502;2022-11-25T05:33:23;8.20;;;2.30;;
18610;SDS011;9435;52.122;5.502;2022-11-25T05:35:54;5.75;;;1.83;;
18610;SDS011;9435;52.122;5.502;2022-11-25T05:38:22;7.38;;;1.98;;
18610;SDS011;9435;52.122;5.502;2022-11-25T05:40:49;6.95;;;2.13;;
18610;SDS011;9435;52.122;5.502;2022-11-25T05:43:16;8.65;;;2.00;;
18610;SDS011;9435;52.122;5.502;2022-11-25T05:45:45;11.60;;;2.45;;
18610;SDS011;9435;52.122;5.502;2022-11-25T05:48:12;7.85;;;2.00;;
18610;SDS011;9435;52.122;5.502;2022-11-25T05:50:39;8.15;;;2.30;;
18610;SDS011;9435;52.122;5.502;2022-11-25T05:53:06;6.97;;;2.10;;
18610;SDS011;9435;52.122;5.502;2022-11-25T05:55:33;9.70;;;2.20;;
18610;SDS011;9435;52.122;5.502;2022-11-25T05:58:00;7.25;;;2.03;;
18610;SDS011;9435;52.122;5.502;2022-11-25T06:00:30;10.73;;;2.10;;
18610;SDS011;9435;52.122;5.502;2022-11-25T06:02:59;9.40;;;2.30;;
18610;SDS011;9435;52.122;5.502;2022-11-25T06:05:26;9.65;;;2.20;;
18610;SDS011;9435;52.122;5.502;2022-11-25T06:07:53;5.85;;;1.92;;
18610;SDS011;9435;52.122;5.502;2022-11-25T06:10:20;8.18;;;2.30;;
18610;SDS011;9435;52.122;5.502;2022-11-25T06:12:47;8.45;;;2.10;;
18610;SDS011;9435;52.122;5.502;2022-11-25T06:15:14;8.93;;;1.98;;
18610;SDS011;9435;52.122;5.502;2022-11-25T06:17:41;10.68;;;2.67;;
18610;SDS011;9435;52.122;5.502;2022-11-25T06:20:10;10.35;;;2.05;;
18610;SDS011;9435;52.122;5.502;2022-11-25T06:22:37;6.45;;;2.20;;
18610;SDS011;9435;52.122;5.502;2022-11-25T06:25:04;6.22;;;2.00;;
18610;SDS011;9435;52.122;5.502;2022-11-25T06:27:32;9.43;;;2.55;;
18610;SDS011;9435;52.122;5.502;2022-11-25T06:29:59;6.43;;;2.30;;
18610;SDS011;9435;52.122;5.502;2022-11-25T06:32:26;8.13;;;2.55;;
18610;SDS011;9435;52.122;5.502;2022-11-25T06:34:53;7.05;;;2.60;;
18610;SDS011;9435;52.122;5.502;2022-11-25T06:37:22;6.97;;;2.33;;
18610;SDS011;9435;52.122;5.502;2022-11-25T06:39:49;7.53;;;2.25;;
18610;SDS011;9435;52.122;5.502;2022-11-25T06:42:15;12.75;;;2.90;;
18610;SDS011;9435;52.122;5.502;2022-11-25T06:44:42;8.63;;;2.67;;
18610;SDS011;9435;52.122;5.502;2022-11-25T06:47:09;8.43;;;2.55;;
18610;SDS011;9435;52.122;5.502;2022-11-25T06:49:36;7.20;;;2.55;;
18610;SDS011;9435;52.122;5.502;2022-11-25T06:52:03;6.40;;;2.60;;
18610;SDS011;9435;52.122;5.502;2022-11-25T06:54:32;9.70;;;2.72;;
18610;SDS011;9435;52.122;5.502;2022-11-25T06:57:00;9.60;;;3.25;;
18610;SDS011;9435;52.122;5.502;2022-11-25T06:59:27;8.48;;;2.78;;
18610;SDS011;9435;52.122;5.502;2022-11-25T07:01:54;8.85;;;2.80;;
18610;SDS011;9435;52.122;5.502;2022-11-25T07:04:22;12.13;;;3.38;;
18610;SDS011;9435;52.122;5.502;2022-11-25T07:06:49;9.35;;;3.20;;
18610;SDS011;9435;52.122;5.502;2022-11-25T07:09:16;9.82;;;3.58;;
18610;SDS011;9435;52.122;5.502;2022-11-25T07:11:45;14.77;;;3.50;;
18610;SDS011;9435;52.122;5.502;2022-11-25T07:14:12;8.50;;;2.83;;
18610;SDS011;9435;52.122;5.502;2022-11-25T07:16:42;11.13;;;3.35;;
18610;SDS011;9435;52.122;5.502;2022-11-25T07:19:10;9.27;;;2.97;;
18610;SDS011;9435;52.122;5.502;2022-11-25T07:21:38;8.57;;;3.55;;
18610;SDS011;9435;52.122;5.502;2022-11-25T07:24:06;25.48;;;13.40;;
18610;SDS011;9435;52.122;5.502;2022-11-25T07:26:34;15.55;;;7.15;;
18610;SDS011;9435;52.122;5.502;2022-11-25T07:29:05;11.25;;;4.28;;
18610;SDS011;9435;52.122;5.502;2022-11-25T07:31:33;11.23;;;4.10;;
18610;SDS011;9435;52.122;5.502;2022-11-25T07:34:02;10.05;;;3.70;;
18610;SDS011;9435;52.122;5.502;2022-11-25T07:36:31;9.73;;;4.03;;
18610;SDS011;9435;52.122;5.502;2022-11-25T07:39:00;10.98;;;4.15;;
18610;SDS011;9435;52.122;5.502;2022-11-25T07:41:29;10.50;;;4.13;;
18610;SDS011;9435;52.122;5.502;2022-11-25T07:43:56;10.32;;;4.18;;
18610;SDS011;9435;52.122;5.502;2022-11-25T07:46:27;12.60;;;3.95;;
18610;SDS011;9435;52.122;5.502;2022-11-25T07:48:56;10.93;;;4.07;;
18610;SDS011;9435;52.122;5.502;2022-11-25T07:51:25;11.27;;;4.30;;
18610;SDS011;9435;52.122;5.502;2022-11-25T07:53:54;10.63;;;4.25;;
18610;SDS011;9435;52.122;5.502;2022-11-25T07:56:22;9.82;;;4.25;;
18610;SDS011;9435;52.122;5.502;2022-11-25T07:58:49;10.60;;;4.43;;
18610;SDS011;9435;52.122;5.502;2022-11-25T08:01:17;13.63;;;4.70;;
18610;SDS011;9435;52.122;5.502;2022-11-25T08:03:46;14.38;;;4.68;;
18610;SDS011;9435;52.122;5.502;2022-11-25T08:06:15;13.32;;;4.72;;
18610;SDS011;9435;52.122;5.502;2022-11-25T08:08:43;12.13;;;4.60;;
18610;SDS011;9435;52.122;5.502;2022-11-25T08:11:12;12.75;;;4.72;;
18610;SDS011;9435;52.122;5.502;2022-11-25T08:13:40;16.38;;;5.50;;
18610;SDS011;9435;52.122;5.502;2022-11-25T08:16:09;13.45;;;5.60;;
18610;SDS011;9435;52.122;5.502;2022-11-25T08:18:37;12.30;;;4.65;;
18610;SDS011;9435;52.122;5.502;2022-11-25T08:21:06;15.23;;;5.38;;
18610;SDS011;9435;52.122;5.502;2022-11-25T08:23:35;16.83;;;5.50;;
18610;SDS011;9435;52.122;5.502;2022-11-25T08:26:04;14.27;;;5.05;;
18610;SDS011;9435;52.122;5.502;2022-11-25T08:28:33;15.10;;;5.28;;
18610;SDS011;9435;52.122;5.502;2022-11-25T08:31:01;14.02;;;5.35;;
18610;SDS011;9435;52.122;5.502;2022-11-25T08:33:28;16.90;;;5.30;;
18610;SDS011;9435;52.122;5.502;2022-11-25T08:35:55;18.10;;;5.82;;
18610;SDS011;9435;52.122;5.502;2022-11-25T08:38:24;15.73;;;6.43;;
18610;SDS011;9435;52.122;5.502;2022-11-25T08:40:52;17.42;;;6.22;;
18610;SDS011;9435;52.122;5.502;2022-11-25T08:43:19;19.02;;;6.50;;
18610;SDS011;9435;52.122;5.502;2022-11-25T08:45:46;17.85;;;6.68;;
18610;SDS011;9435;52.122;5.502;2022-11-25T08:48:14;17.15;;;6.55;;
18610;SDS011;9435;52.122;5.502;2022-11-25T08:50:42;20.23;;;6.50;;
18610;SDS011;9435;52.122;5.502;2022-11-25T08:53:14;19.75;;;7.50;;
18610;SDS011;9435;52.122;5.502;2022-11-25T08:55:43;21.85;;;7.10;;
18610;SDS011;9435;52.122;5.502;2022-11-25T08:58:10;18.77;;;6.90;;
18610;SDS011;9435;52.122;5.502;2022-11-25T09:00:38;21.25;;;6.57;;
18610;SDS011;9435;52.122;5.502;2022-11-25T09:03:05;19.67;;;6.90;;
18610;SDS011;9435;52.122;5.502;2022-11-25T09:05:33;16.23;;;6.90;;
18610;SDS011;9435;52.122;5.502;2022-11-25T09:08:01;17.58;;;6.95;;
18610;SDS011;9435;52.122;5.502;2022-11-25T09:10:28;21.77;;;7.00;;
18610;SDS011;9435;52.122;5.502;2022-11-25T09:12:57;20.05;;;7.03;;
18610;SDS011;9435;52.122;5.502;2022-11-25T09:15:25;18.48;;;7.05;;
18610;SDS011;9435;52.122;5.502;2022-11-25T09:17:56;19.92;;;7.10;;
18610;SDS011;9435;52.122;5.502;2022-11-25T09:20:24;20.80;;;6.97;;
18610;SDS011;9435;52.122;5.502;2022-11-25T09:22:51;26.38;;;7.32;;
18610;SDS011;9435;52.122;5.502;2022-11-25T09:25:19;21.20;;;7.03;;
18610;SDS011;9435;52.122;5.502;2022-11-25T09:27:46;23.08;;;7.35;;
18610;SDS011;9435;52.122;5.502;2022-11-25T09:30:14;17.50;;;7.05;;
18610;SDS011;9435;52.122;5.502;2022-11-25T09:32:42;20.95;;;7.43;;
18610;SDS011;9435;52.122;5.502;2022-11-25T09:35:09;20.10;;;7.30;;
18610;SDS011;9435;52.122;5.502;2022-11-25T09:37:36;17.95;;;6.97;;
18610;SDS011;9435;52.122;5.502;2022-11-25T09:40:05;18.13;;;6.90;;
18610;SDS011;9435;52.122;5.502;2022-11-25T09:42:38;17.77;;;6.60;;
18610;SDS011;9435;52.122;5.502;2022-11-25T09:45:35;21.77;;;6.88;;
18610;SDS011;9435;52.122;5.502;2022-11-25T09:48:39;22.23;;;6.93;;
18610;SDS011;9435;52.122;5.502;2022-11-25T09:51:16;27.35;;;6.95;;
18610;SDS011;9435;52.122;5.502;2022-11-25T09:53:47;19.27;;;6.35;;
18610;SDS011;9435;52.122;5.502;2022-11-25T09:56:24;22.33;;;6.50;;
18610;SDS011;9435;52.122;5.502;2022-11-25T09:58:58;21.80;;;6.53;;
18610;SDS011;9435;52.122;5.502;2022-11-25T10:01:31;15.95;;;5.85;;
18610;SDS011;9435;52.122;5.502;2022-11-25T10:04:05;13.57;;;5.75;;
18610;SDS011;9435;52.122;5.502;2022-11-25T10:06:39;19.73;;;6.00;;
18610;SDS011;9435;52.122;5.502;2022-11-25T10:09:11;19.13;;;5.97;;
18610;SDS011;9435;52.122;5.502;2022-11-25T10:11:46;15.13;;;5.65;;
18610;SDS011;9435;52.122;5.502;2022-11-25T10:14:17;18.02;;;5.78;;
18610;SDS011;9435;52.122;5.502;2022-11-25T10:16:53;15.02;;;5.55;;
18610;SDS011;9435;52.122;5.502;2022-11-25T10:19:30;15.20;;;5.28;;
18610;SDS011;9435;52.122;5.502;2022-11-25T10:22:10;15.07;;;5.63;;
18610;SDS011;9435;52.122;5.502;2022-11-25T10:24:47;19.67;;;6.25;;
18610;SDS011;9435;52.122;5.502;2022-11-25T10:27:17;16.08;;;5.32;;
18610;SDS011;9435;52.122;5.502;2022-11-25T10:29:47;15.93;;;5.32;;
18610;SDS011;9435;52.122;5.502;2022-11-25T10:32:23;17.25;;;5.40;;
18610;SDS011;9435;52.122;5.502;2022-11-25T10:34:53;19.48;;;5.25;;
18610;SDS011;9435;52.122;5.502;2022-11-25T10:37:25;16.67;;;5.38;;
18610;SDS011;9435;52.122;5.502;2022-11-25T10:39:55;17.55;;;5.70;;
18610;SDS011;9435;52.122;5.502;2022-11-25T10:42:23;13.90;;;5.03;;
18610;SDS011;9435;52.122;5.502;2022-11-25T10:44:52;15.43;;;5.30;;
18610;SDS011;9435;52.122;5.502;2022-11-25T10:47:34;17.75;;;5.07;;
18610;SDS011;9435;52.122;5.502;2022-11-25T10:50:05;18.63;;;5.30;;
18610;SDS011;9435;52.122;5.502;2022-11-25T10:52:42;20.48;;;5.20;;
18610;SDS011;9435;52.122;5.502;2022-11-25T10:55:14;13.63;;;4.53;;
18610;SDS011;9435;52.122;5.502;2022-11-25T10:57:43;15.50;;;5.05;;
18610;SDS011;9435;52.122;5.502;2022-11-25T11:02:53;15.73;;;4.85;;
18610;SDS011;9435;52.122;5.502;2022-11-25T11:05:22;18.73;;;5.72;;
18610;SDS011;9435;52.122;5.502;2022-11-25T11:08:05;21.38;;;4.97;;
18610;SDS011;9435;52.122;5.502;2022-11-25T11:10:34;14.70;;;4.40;;
18610;SDS011;9435;52.122;5.502;2022-11-25T11:13:02;15.48;;;4.20;;
18610;SDS011;9435;52.122;5.502;2022-11-25T11:15:32;16.73;;;5.00;;
18610;SDS011;9435;52.122;5.502;2022-11-25T11:18:20;19.85;;;4.88;;
18610;SDS011;9435;52.122;5.502;2022-11-25T11:20:51;17.95;;;4.63;;
18610;SDS011;9435;52.122;5.502;2022-11-25T11:23:20;18.45;;;4.82;;
18610;SDS011;9435;52.122;5.502;2022-11-25T11:25:54;19.95;;;4.75;;
18610;SDS011;9435;52.122;5.502;2022-11-25T11:28:23;18.27;;;4.68;;
18610;SDS011;9435;52.122;5.502;2022-11-25T11:30:54;16.67;;;4.40;;
18610;SDS011;9435;52.122;5.502;2022-11-25T11:33:29;12.40;;;4.00;;
18610;SDS011;9435;52.122;5.502;2022-11-25T11:36:03;20.17;;;4.68;;
18610;SDS011;9435;52.122;5.502;2022-11-25T11:38:50;18.23;;;4.50;;
18610;SDS011;9435;52.122;5.502;2022-11-25T11:41:22;17.10;;;4.25;;
18610;SDS011;9435;52.122;5.502;2022-11-25T11:44:04;19.23;;;4.30;;
18610;SDS011;9435;52.122;5.502;2022-11-25T11:49:41;16.73;;;4.10;;
18610;SDS011;9435;52.122;5.502;2022-11-25T11:52:19;18.95;;;3.83;;
18610;SDS011;9435;52.122;5.502;2022-11-25T11:54:57;16.48;;;4.10;;
18610;SDS011;9435;52.122;5.502;2022-11-25T11:57:29;14.10;;;3.55;;
18610;SDS011;9435;52.122;5.502;2022-11-25T12:00:05;15.27;;;3.50;;
18610;SDS011;9435;52.122;5.502;2022-11-25T12:02:41;17.50;;;3.63;;
18610;SDS011;9435;52.122;5.502;2022-11-25T12:05:21;15.70;;;3.30;;
18610;SDS011;9435;52.122;5.502;2022-11-25T12:07:53;14.85;;;3.22;;
18610;SDS011;9435;52.122;5.502;2022-11-25T12:10:30;16.85;;;3.60;;
18610;SDS011;9435;52.122;5.502;2022-11-25T12:13:04;18.73;;;3.70;;
18610;SDS011;9435;52.122;5.502;2022-11-25T12:15:38;15.43;;;3.65;;
18610;SDS011;9435;52.122;5.502;2022-11-25T12:18:11;14.93;;;3.08;;
18610;SDS011;9435;52.122;5.502;2022-11-25T12:20:48;16.95;;;3.60;;
18610;SDS011;9435;52.122;5.502;2022-11-25T12:23:21;16.17;;;2.67;;
18610;SDS011;9435;52.122;5.502;2022-11-25T12:25:55;14.55;;;3.00;;
18610;SDS011;9435;52.122;5.502;2022-11-25T12:28:29;16.75;;;3.30;;
18610;SDS011;9435;52.122;5.502;2022-11-25T12:31:02;16.13;;;3.42;;
18610;SDS011;9435;52.122;5.502;2022-11-25T12:33:39;13.90;;;3.15;;
18610;SDS011;9435;52.122;5.502;2022-11-25T12:36:14;12.75;;;2.65;;
18610;SDS011;9435;52.122;5.502;2022-11-25T12:38:49;14.27;;;3.00;;
18610;SDS011;9435;52.122;5.502;2022-11-25T12:41:22;12.38;;;2.78;;
18610;SDS011;9435;52.122;5.502;2022-11-25T12:43:57;15.23;;;2.97;;
18610;SDS011;9435;52.122;5.502;2022-11-25T12:46:32;17.10;;;2.70;;
18610;SDS011;9435;52.122;5.502;2022-11-25T12:49:02;10.45;;;2.60;;
18610;SDS011;9435;52.122;5.502;2022-11-25T12:51:42;15.48;;;2.88;;
18610;SDS011;9435;52.122;5.502;2022-11-25T12:54:41;17.27;;;3.05;;
18610;SDS011;9435;52.122;5.502;2022-11-25T13:00:47;13.68;;;2.90;;
18610;SDS011;9435;52.122;5.502;2022-11-25T13:03:42;17.85;;;2.60;;
18610;SDS011;9435;52.122;5.502;2022-11-25T13:06:38;17.92;;;2.58;;
18610;SDS011;9435;52.122;5.502;2022-11-25T13:09:32;11.20;;;2.47;;
18610;SDS011;9435;52.122;5.502;2022-11-25T13:12:24;11.77;;;2.50;;
18610;SDS011;9435;52.122;5.502;2022-11-25T13:17:49;17.58;;;2.60;;
18610;SDS011;9435;52.122;5.502;2022-11-25T13:20:30;13.50;;;2.53;;
18610;SDS011;9435;52.122;5.502;2022-11-25T13:23:19;11.10;;;2.45;;
18610;SDS011;9435;52.122;5.502;2022-11-25T13:32:38;13.70;;;2.22;;
18610;SDS011;9435;52.122;5.502;2022-11-25T13:38:34;8.25;;;1.90;;
18610;SDS011;9435;52.122;5.502;2022-11-25T13:41:21;13.65;;;2.30;;
18610;SDS011;9435;52.122;5.502;2022-11-25T13:43:52;13.25;;;2.35;;
18610;SDS011;9435;52.122;5.502;2022-11-25T13:46:40;12.60;;;2.40;;
18610;SDS011;9435;52.122;5.502;2022-11-25T13:49:19;15.63;;;2.42;;
18610;SDS011;9435;52.122;5.502;2022-11-25T13:51:52;12.57;;;2.30;;
18610;SDS011;9435;52.122;5.502;2022-11-25T13:54:23;10.18;;;2.15;;
18610;SDS011;9435;52.122;5.502;2022-11-25T14:00:02;11.00;;;2.38;;
18610;SDS011;9435;52.122;5.502;2022-11-25T14:02:37;14.70;;;2.50;;
18610;SDS011;9435;52.122;5.502;2022-11-25T14:08:13;17.33;;;3.13;;
18610;SDS011;9435;52.122;5.502;2022-11-25T14:10:49;17.95;;;3.15;;
18610;SDS011;9435;52.122;5.502;2022-11-25T14:13:40;17.70;;;2.90;;
18610;SDS011;9435;52.122;5.502;2022-11-25T14:16:31;11.65;;;2.35;;
18610;SDS011;9435;52.122;5.502;2022-11-25T14:22:10;19.67;;;2.70;;
18610;SDS011;9435;52.122;5.502;2022-11-25T14:24:48;16.90;;;2.45;;
18610;SDS011;9435;52.122;5.502;2022-11-25T14:27:18;10.15;;;2.05;;
18610;SDS011;9435;52.122;5.502;2022-11-25T14:29:50;14.85;;;2.65;;
18610;SDS011;9435;52.122;5.502;2022-11-25T14:32:21;19.58;;;2.67;;
18610;SDS011;9435;52.122;5.502;2022-11-25T14:34:53;17.98;;;2.67;;
18610;SDS011;9435;52.122;5.502;2022-11-25T14:37:26;19.42;;;2.22;;
18610;SDS011;9435;52.122;5.502;2022-11-25T14:39:58;18.30;;;2.75;;
18610;SDS011;9435;52.122;5.502;2022-11-25T14:42:31;12.60;;;2.47;;
18610;SDS011;9435;52.122;5.502;2022-11-25T14:45:03;16.40;;;2.88;;
18610;SDS011;9435;52.122;5.502;2022-11-25T14:47:47;11.75;;;2.55;;
18610;SDS011;9435;52.122;5.502;2022-11-25T14:50:15;19.08;;;2.97;;
18610;SDS011;9435;52.122;5.502;2022-11-25T14:52:43;15.02;;;2.92;;
18610;SDS011;9435;52.122;5.502;2022-11-25T14:55:12;15.15;;;3.10;;
18610;SDS011;9435;52.122;5.502;2022-11-25T14:57:49;15.40;;;2.72;;
18610;SDS011;9435;52.122;5.502;2022-11-25T15:00:17;15.75;;;2.80;;
18610;SDS011;9435;52.122;5.502;2022-11-25T15:02:52;19.63;;;3.10;;
18610;SDS011;9435;52.122;5.502;2022-11-25T15:05:22;15.35;;;2.70;;
18610;SDS011;9435;52.122;5.502;2022-11-25T15:07:56;16.38;;;3.15;;
18610;SDS011;9435;52.122;5.502;2022-11-25T15:10:29;12.25;;;2.88;;
18610;SDS011;9435;52.122;5.502;2022-11-25T15:13:05;21.10;;;4.00;;
18610;SDS011;9435;52.122;5.502;2022-11-25T15:15:38;19.52;;;3.28;;
18610;SDS011;9435;52.122;5.502;2022-11-25T15:18:07;17.38;;;3.33;;
18610;SDS011;9435;52.122;5.502;2022-11-25T15:20:43;20.20;;;3.65;;
18610;SDS011;9435;52.122;5.502;2022-11-25T15:23:12;24.27;;;4.20;;
18610;SDS011;9435;52.122;5.502;2022-11-25T15:25:48;21.35;;;3.47;;
18610;SDS011;9435;52.122;5.502;2022-11-25T15:28:16;16.88;;;3.50;;
18610;SDS011;9435;52.122;5.502;2022-11-25T15:30:53;18.92;;;3.45;;
18610;SDS011;9435;52.122;5.502;2022-11-25T15:33:23;16.23;;;3.40;;
18610;SDS011;9435;52.122;5.502;2022-11-25T15:35:52;15.38;;;3.50;;
18610;SDS011;9435;52.122;5.502;2022-11-25T15:38:33;13.77;;;3.70;;
18610;SDS011;9435;52.122;5.502;2022-11-25T15:41:02;16.10;;;3.67;;
18610;SDS011;9435;52.122;5.502;2022-11-25T15:43:30;16.25;;;3.90;;
18610;SDS011;9435;52.122;5.502;2022-11-25T15:45:58;15.02;;;3.45;;